Time;durP1;ratioP1;P1;durP2;ratioP2;P2;SDS_P1;SDS_P2;PMS_P1;PMS_P2;Temp;Humidity;BMP_temperature;BMP_pressure;BME280_temperature;BME280_humidity;BME280_pressure;Samples;Min_cycle;Max_cycle;Signal;HPM_P1;HPM_P2
2022/06/02 00:01:39;;;;;;;3.30;1.52;;;20.80;55.70;;;;;;5115329;28;20196;-70
2022/06/02 00:04:47;;;;;;;1.75;1.65;;;20.80;55.70;;;;;;5114733;27;20167;-70
2022/06/02 00:07:48;;;;;;;1.48;1.38;;;20.80;55.70;;;;;;5113660;28;20208;-71
2022/06/02 00:11:05;;;;;;;1.48;1.38;;;20.80;55.70;;;;;;5113542;28;20188;-70
2022/06/02 00:14:11;;;;;;;3.38;2.58;;;20.70;55.60;;;;;;5085203;28;20188;-70
2022/06/02 00:17:01;;;;;;;2.08;1.98;;;20.80;55.70;;;;;;5096479;28;20235;-70
2022/06/02 00:20:00;;;;;;;1.85;1.63;;;20.70;55.60;;;;;;5114606;28;20183;-70
2022/06/02 00:23:16;;;;;;;2.35;2.10;;;20.70;55.70;;;;;;5113648;28;20168;-70
2022/06/02 00:25:58;;;;;;;2.50;2.30;;;20.70;55.60;;;;;;5083117;28;20192;-70
2022/06/02 00:28:49;;;;;;;1.80;1.70;;;20.70;55.60;;;;;;5113402;28;20208;-70
2022/06/02 00:31:57;;;;;;;2.05;1.85;;;20.70;55.60;;;;;;5113176;28;20625;-70
2022/06/02 00:34:26;;;;;;;2.38;2.15;;;20.70;55.70;;;;;;5113801;28;20183;-70
2022/06/02 00:37:09;;;;;;;2.25;2.05;;;20.70;55.60;;;;;;5114492;28;20284;-70
2022/06/02 00:39:35;;;;;;;2.53;2.05;;;20.70;55.60;;;;;;5113323;28;20192;-70
2022/06/02 00:42:34;;;;;;;1.90;1.80;;;20.70;55.60;;;;;;5113208;28;20165;-70
2022/06/02 00:45:15;;;;;;;2.22;2.03;;;20.70;55.60;;;;;;5113872;28;20195;-70
2022/06/02 00:47:51;;;;;;;1.92;1.83;;;20.70;55.60;;;;;;5112690;28;20705;-70
2022/06/02 00:50:26;;;;;;;2.42;2.22;;;20.70;55.60;;;;;;5113165;28;20164;-70
2022/06/02 00:53:14;;;;;;;2.47;2.13;;;20.70;55.60;;;;;;5112823;28;20737;-70
2022/06/02 00:59:24;;;;;;;2.28;2.08;;;20.70;55.60;;;;;;5112551;28;20194;-70
2022/06/02 01:01:51;;;;;;;2.00;1.90;;;20.70;55.60;;;;;;5113684;28;20210;-70
2022/06/02 01:04:18;;;;;;;4.97;3.28;;;20.70;55.60;;;;;;5112775;28;20184;-70
2022/06/02 01:06:56;;;;;;;3.83;3.30;;;20.70;55.60;;;;;;5095640;28;20212;-70
2022/06/02 01:09:55;;;;;;;9.48;7.15;;;20.70;55.60;;;;;;5113696;28;20232;-70
2022/06/02 01:12:55;;;;;;;7.25;5.82;;;20.70;55.60;;;;;;5112078;28;20176;-70
2022/06/02 01:16:09;;;;;;;4.07;3.45;;;20.70;55.60;;;;;;5113425;28;20173;-70
2022/06/02 01:18:55;;;;;;;5.40;4.43;;;20.70;55.60;;;;;;5095108;28;20567;-70
2022/06/02 01:21:50;;;;;;;5.55;5.05;;;20.70;55.60;;;;;;5113349;28;20168;-70
2022/06/02 01:24:44;;;;;;;6.40;4.43;;;20.70;55.60;;;;;;5112118;28;20203;-70
2022/06/02 01:27:10;;;;;;;4.25;3.60;;;20.60;55.50;;;;;;5111854;28;20606;-70
2022/06/02 01:30:07;;;;;;;3.83;3.35;;;20.70;55.60;;;;;;5105707;28;20188;-70
2022/06/02 01:33:02;;;;;;;4.95;4.00;;;20.70;55.60;;;;;;5091699;28;20191;-70
2022/06/02 01:35:45;;;;;;;4.28;3.88;;;20.70;55.60;;;;;;5075060;28;20230;-71
2022/06/02 01:38:48;;;;;;;4.50;3.92;;;20.70;55.60;;;;;;5074813;28;20588;-70
2022/06/02 01:41:53;;;;;;;4.22;3.60;;;20.70;55.60;;;;;;5091208;28;20191;-70
2022/06/02 01:44:44;;;;;;;4.25;3.72;;;20.70;55.60;;;;;;5092762;28;20169;-70
2022/06/02 01:47:20;;;;;;;3.85;3.40;;;20.70;55.60;;;;;;5091310;28;20205;-70
2022/06/02 01:50:26;;;;;;;5.40;3.70;;;20.60;55.50;;;;;;5074905;28;20176;-70
2022/06/02 01:53:07;;;;;;;4.53;3.17;;;20.60;55.50;;;;;;5075034;28;20180;-70
2022/06/02 01:55:53;;;;;;;4.25;3.40;;;20.60;55.50;;;;;;5091743;28;20206;-70
2022/06/02 01:58:50;;;;;;;3.55;3.22;;;20.60;55.50;;;;;;5091450;28;20258;-70
2022/06/02 02:01:41;;;;;;;4.07;3.45;;;20.60;55.50;;;;;;5091894;28;20207;-70
2022/06/02 02:04:52;;;;;;;3.22;2.92;;;20.60;55.50;;;;;;5077440;28;20185;-70
2022/06/02 02:07:46;;;;;;;3.90;3.10;;;20.60;55.50;;;;;;5091685;28;20285;-70
2022/06/02 02:10:51;;;;;;;3.67;3.30;;;20.60;55.50;;;;;;5092165;28;20172;-70
2022/06/02 02:13:52;;;;;;;3.90;3.22;;;20.60;55.50;;;;;;5091383;28;20169;-71
2022/06/02 02:16:58;;;;;;;3.25;2.95;;;20.60;55.50;;;;;;5092838;28;20196;-71
2022/06/02 02:20:00;;;;;;;3.65;3.35;;;20.60;55.50;;;;;;5092671;28;20185;-70
2022/06/02 02:23:44;;;;;;;4.00;3.30;;;20.60;55.50;;;;;;5092071;28;20176;-70
2022/06/02 02:26:26;;;;;;;3.20;2.90;;;20.60;55.50;;;;;;5004162;28;20218;-70
2022/06/02 02:29:07;;;;;;;4.05;3.50;;;20.60;55.50;;;;;;5092047;28;20671;-71
2022/06/02 02:32:07;;;;;;;3.33;3.03;;;20.60;55.50;;;;;;5091767;28;20173;-70
2022/06/02 02:35:06;;;;;;;3.10;2.80;;;20.60;55.50;;;;;;5089940;28;20272;-70
2022/06/02 02:37:48;;;;;;;2.95;2.65;;;20.60;55.50;;;;;;5087022;28;20213;-70
2022/06/02 02:40:28;;;;;;;3.10;2.80;;;20.60;55.50;;;;;;5091644;28;20196;-70
2022/06/02 02:43:27;;;;;;;3.10;2.78;;;20.60;55.50;;;;;;5091384;28;20173;-70
2022/06/02 02:46:26;;;;;;;3.38;3.08;;;20.60;55.50;;;;;;5092455;28;20181;-70
2022/06/02 02:49:37;;;;;;;2.88;2.63;;;20.60;55.50;;;;;;5094681;28;20193;-70
2022/06/02 02:52:47;;;;;;;2.90;2.70;;;20.60;55.50;;;;;;5049920;28;20229;-70
2022/06/02 02:55:33;;;;;;;3.03;2.63;;;20.60;55.50;;;;;;5049006;28;20679;-70
2022/06/02 02:58:28;;;;;;;3.10;2.80;;;20.60;55.50;;;;;;5074977;28;20241;-70
2022/06/02 03:01:13;;;;;;;3.30;3.00;;;20.60;55.50;;;;;;5074493;28;20284;-70
2022/06/02 03:04:31;;;;;;;2.85;2.55;;;20.60;55.50;;;;;;5074091;28;20170;-68
2022/06/02 03:06:57;;;;;;;2.50;2.30;;;20.60;55.50;;;;;;5073894;28;20212;-70
2022/06/02 03:10:00;;;;;;;2.65;2.45;;;20.60;55.50;;;;;;5073652;28;20209;-70
2022/06/02 03:13:14;;;;;;;2.85;2.55;;;20.60;55.50;;;;;;5074217;28;20196;-70
2022/06/02 03:16:08;;;;;;;2.42;2.22;;;20.60;55.50;;;;;;5055591;28;20698;-70
2022/06/02 03:19:07;;;;;;;3.03;2.72;;;20.60;55.60;;;;;;5073773;28;20262;-70
2022/06/02 03:22:07;;;;;;;2.85;2.65;;;20.60;55.60;;;;;;5074610;28;20181;-70
2022/06/02 03:24:46;;;;;;;2.88;2.67;;;20.60;55.60;;;;;;5073244;28;20186;-70
2022/06/02 03:27:31;;;;;;;2.70;2.40;;;20.60;55.60;;;;;;5056630;28;20220;-70
2022/06/02 03:30:23;;;;;;;3.22;2.53;;;20.60;55.50;;;;;;5041650;28;20174;-70
2022/06/02 03:33:34;;;;;;;2.25;2.08;;;20.60;55.50;;;;;;5073252;28;20314;-70
2022/06/02 03:36:48;;;;;;;2.42;2.22;;;20.60;55.50;;;;;;5073158;28;20192;-69
2022/06/02 03:39:32;;;;;;;2.25;2.05;;;20.60;55.50;;;;;;4996022;28;20192;-70
2022/06/02 03:42:46;;;;;;;2.95;2.45;;;20.60;55.60;;;;;;5012433;28;20274;-70
2022/06/02 03:45:32;;;;;;;2.13;1.95;;;20.50;55.50;;;;;;5084560;28;20244;-70
2022/06/02 03:48:26;;;;;;;2.25;2.05;;;20.50;55.50;;;;;;5072877;28;20213;-70
2022/06/02 03:51:01;;;;;;;3.95;2.17;;;20.50;55.50;;;;;;5074151;28;20170;-70
2022/06/02 03:53:27;;;;;;;2.42;2.22;;;20.50;55.50;;;;;;5073876;28;20166;-70
2022/06/02 03:56:25;;;;;;;2.40;2.20;;;20.50;55.50;;;;;;5072594;28;20174;-70
2022/06/02 03:59:18;;;;;;;2.45;2.25;;;20.50;55.50;;;;;;5040593;28;20204;-70
2022/06/02 04:02:05;;;;;;;2.45;2.25;;;20.50;55.50;;;;;;5072998;28;20669;-70
2022/06/02 04:04:43;;;;;;;2.65;2.00;;;20.50;55.50;;;;;;5072480;28;20196;-70
2022/06/02 04:07:34;;;;;;;2.28;2.08;;;20.50;55.60;;;;;;5072418;28;20224;-70
2022/06/02 04:10:37;;;;;;;2.38;2.17;;;20.50;55.60;;;;;;5072782;28;20192;-70
2022/06/02 04:16:40;;;;;;;1.95;1.85;;;20.60;55.60;;;;;;5072541;28;20569;-70
2022/06/02 04:23:25;;;;;;;2.30;2.10;;;20.50;55.50;;;;;;5048935;28;20194;-70
2022/06/02 04:26:45;;;;;;;2.20;2.00;;;20.50;55.50;;;;;;5073003;28;20186;-70
2022/06/02 04:29:51;;;;;;;1.92;1.80;;;20.50;55.50;;;;;;5071991;28;20213;-70
2022/06/02 04:32:29;;;;;;;2.63;2.42;;;20.50;55.50;;;;;;5071915;28;20557;-70
2022/06/02 04:35:09;;;;;;;2.10;1.98;;;20.50;55.50;;;;;;5072020;28;20165;-70
2022/06/02 04:38:45;;;;;;;2.67;2.30;;;20.60;55.60;;;;;;5071822;28;20201;-70
2022/06/02 04:42:00;;;;;;;2.15;1.90;;;20.50;55.50;;;;;;4994457;28;20660;-70
2022/06/02 04:44:53;;;;;;;3.13;2.40;;;20.50;55.50;;;;;;5072960;28;20228;-70
2022/06/02 04:47:51;;;;;;;3.25;2.22;;;20.60;55.60;;;;;;5055241;28;20210;-70
2022/06/02 04:50:34;;;;;;;2.80;2.30;;;20.60;55.60;;;;;;5072198;28;20181;-70
2022/06/02 04:53:28;;;;;;;2.40;2.20;;;20.60;56.20;;;;;;5056820;28;20200;-70
2022/06/02 04:56:21;;;;;;;2.33;2.13;;;20.60;55.60;;;;;;5073225;28;20169;-70
2022/06/02 04:58:51;;;;;;;2.20;2.00;;;20.60;55.60;;;;;;5071862;28;20185;-70
2022/06/02 05:01:42;;;;;;;2.28;2.08;;;20.60;55.60;;;;;;5071854;28;20221;-70
2022/06/02 05:04:44;;;;;;;2.40;1.95;;;20.60;55.60;;;;;;5071590;28;20699;-70
2022/06/02 05:07:39;;;;;;;2.53;2.05;;;20.60;55.60;;;;;;5072831;28;20205;-70
2022/06/02 05:10:20;;;;;;;2.00;1.80;;;20.60;55.60;;;;;;5071461;28;20174;-70
2022/06/02 05:13:06;;;;;;;2.67;2.03;;;20.60;55.60;;;;;;5072554;28;20185;-68
2022/06/02 05:15:53;;;;;;;2.13;1.92;;;20.50;55.50;;;;;;5071052;28;20280;-70
2022/06/02 05:18:28;;;;;;;2.45;1.83;;;20.60;55.60;;;;;;5071082;28;20692;-70
2022/06/02 05:21:37;;;;;;;2.40;2.00;;;20.60;55.50;;;;;;5054306;28;20181;-69
2022/06/02 05:24:19;;;;;;;2.15;1.88;;;20.60;55.50;;;;;;5054219;28;20280;-70
2022/06/02 05:27:38;;;;;;;1.80;1.70;;;20.60;55.50;;;;;;5070781;28;20193;-70
2022/06/02 05:30:22;;;;;;;1.92;1.77;;;20.60;55.60;;;;;;5054366;28;20197;-70
2022/06/02 05:33:07;;;;;;;1.92;1.70;;;20.60;55.50;;;;;;5070686;28;20190;-69
2022/06/02 05:35:33;;;;;;;2.22;2.03;;;20.60;55.50;;;;;;5054146;28;20262;-71
2022/06/02 05:38:26;;;;;;;2.63;2.42;;;20.60;55.60;;;;;;5054430;28;20237;-70
2022/06/02 05:41:06;;;;;;;2.38;2.17;;;20.60;55.50;;;;;;5071889;28;20247;-70
2022/06/02 05:44:17;;;;;;;3.33;2.00;;;20.60;55.50;;;;;;5070475;28;20181;-70
2022/06/02 05:46:58;;;;;;;2.30;2.10;;;20.60;55.50;;;;;;5065589;28;20205;-70
2022/06/02 05:49:39;;;;;;;2.40;2.20;;;20.60;55.60;;;;;;5081344;28;20208;-69
2022/06/02 05:52:35;;;;;;;1.85;1.75;;;20.60;55.50;;;;;;5094410;28;20263;-70
2022/06/02 05:55:03;;;;;;;1.75;1.63;;;20.60;55.50;;;;;;5111004;28;20188;-70
2022/06/02 05:57:49;;;;;;;3.47;2.10;;;20.60;55.50;;;;;;5112292;28;20200;-70
2022/06/02 06:00:39;;;;;;;2.25;1.90;;;20.60;55.50;;;;;;5095559;28;20188;-70
2022/06/02 06:03:41;;;;;;;1.98;1.60;;;20.60;55.50;;;;;;5090776;28;20195;-70
2022/06/02 06:06:32;;;;;;;1.95;1.85;;;20.60;55.50;;;;;;5090741;28;20180;-70
2022/06/02 06:09:37;;;;;;;2.03;1.92;;;20.60;55.50;;;;;;5074034;28;20274;-70
2022/06/02 06:12:59;;;;;;;1.63;1.52;;;20.60;55.50;;;;;;5078083;28;20186;-70
2022/06/02 06:15:56;;;;;;;2.30;1.60;;;20.60;55.50;;;;;;5013039;28;20179;-70
2022/06/02 06:18:50;;;;;;;1.83;1.70;;;20.60;55.50;;;;;;5053903;28;20206;-70
2022/06/02 06:21:27;;;;;;;2.13;1.80;;;20.60;55.50;;;;;;5073807;28;20204;-70
2022/06/02 06:24:30;;;;;;;1.88;1.60;;;20.60;55.50;;;;;;5074303;28;20220;-70
2022/06/02 06:27:33;;;;;;;2.08;1.88;;;20.60;55.50;;;;;;5074039;28;20205;-70
2022/06/02 06:30:23;;;;;;;2.05;1.80;;;20.60;55.40;;;;;;5074144;28;20182;-70
2022/06/02 06:33:03;;;;;;;1.77;1.67;;;20.70;55.60;;;;;;5057577;28;20569;-70
2022/06/02 06:35:56;;;;;;;1.60;1.50;;;20.60;55.50;;;;;;5057252;28;20192;-70
2022/06/02 06:39:01;;;;;;;1.67;1.52;;;20.70;55.60;;;;;;5074078;28;20258;-70
2022/06/02 06:41:59;;;;;;;2.58;1.60;;;20.70;55.60;;;;;;5056946;28;20186;-70
2022/06/02 06:44:37;;;;;;;2.10;1.80;;;20.60;55.40;;;;;;5075081;28;20300;-70
2022/06/02 06:47:30;;;;;;;1.23;1.23;;;20.60;55.30;;;;;;5057222;28;20258;-71
2022/06/02 06:50:39;;;;;;;1.58;1.48;;;20.60;55.40;;;;;;5075137;28;20190;-71
2022/06/02 06:53:17;;;;;;;1.63;1.52;;;20.70;55.40;;;;;;5059472;28;20208;-70
2022/06/02 06:56:06;;;;;;;1.40;1.30;;;20.70;55.40;;;;;;5073730;28;20196;-70
2022/06/02 06:59:03;;;;;;;1.90;1.40;;;20.70;55.40;;;;;;5056757;28;20186;-70
2022/06/02 07:02:05;;;;;;;1.45;1.35;;;20.70;55.40;;;;;;5073715;28;20258;-70
2022/06/02 07:05:01;;;;;;;1.50;1.30;;;20.70;55.40;;;;;;5074512;28;20238;-70
2022/06/02 07:07:44;;;;;;;1.45;1.35;;;20.70;55.30;;;;;;5056655;28;20210;-70
2022/06/02 07:10:35;;;;;;;1.33;1.23;;;20.70;55.30;;;;;;5073657;28;20244;-70
2022/06/02 07:13:07;;;;;;;1.30;1.20;;;20.70;55.30;;;;;;5073253;28;20182;-70
2022/06/02 07:15:58;;;;;;;1.75;1.40;;;20.70;55.30;;;;;;5056808;28;20182;-70
2022/06/02 07:19:09;;;;;;;1.85;1.70;;;20.70;55.30;;;;;;5073288;28;20557;-70
2022/06/02 07:22:12;;;;;;;1.58;1.48;;;20.70;55.20;;;;;;5072819;28;20292;-68
2022/06/02 07:24:56;;;;;;;2.22;1.70;;;20.70;55.20;;;;;;5073123;28;20264;-70
2022/06/02 07:27:42;;;;;;;1.58;1.48;;;20.70;55.20;;;;;;5072955;28;20277;-70
2022/06/02 07:31:17;;;;;;;1.60;1.50;;;20.70;55.30;;;;;;5056393;28;20193;-70
2022/06/02 07:34:20;;;;;;;2.28;1.50;;;20.70;55.20;;;;;;5007215;28;20203;-70
2022/06/02 07:37:10;;;;;;;3.42;1.80;;;20.70;55.20;;;;;;5031916;28;20268;-70
2022/06/02 07:40:04;;;;;;;1.65;1.38;;;20.70;55.20;;;;;;5090666;28;20208;-70
2022/06/02 07:42:58;;;;;;;1.60;1.50;;;20.70;55.00;;;;;;5095337;28;20189;-70
2022/06/02 07:45:35;;;;;;;1.70;1.40;;;20.80;55.20;;;;;;5093116;28;20287;-70
2022/06/02 07:48:34;;;;;;;1.70;1.60;;;20.80;55.20;;;;;;5075959;28;20277;-70
2022/06/02 07:51:44;;;;;;;1.25;1.15;;;20.80;55.20;;;;;;5091960;28;20189;-71
2022/06/02 07:54:34;;;;;;;1.60;1.50;;;20.80;55.10;;;;;;5092832;28;20186;-70
2022/06/02 07:57:14;;;;;;;1.30;1.20;;;20.80;55.20;;;;;;5092544;28;20679;-70
2022/06/02 07:59:56;;;;;;;1.20;1.13;;;20.80;55.10;;;;;;5104082;28;20192;-70
2022/06/02 08:02:34;;;;;;;1.50;1.40;;;20.80;55.10;;;;;;5087379;28;20215;-70
2022/06/02 08:05:43;;;;;;;1.20;1.20;;;20.80;55.10;;;;;;5092623;28;20635;-70
2022/06/02 08:08:34;;;;;;;1.45;1.35;;;20.80;55.10;;;;;;5093776;28;20208;-70
2022/06/02 08:11:16;;;;;;;1.60;1.50;;;20.80;55.10;;;;;;5092659;28;20191;-70
2022/06/02 08:14:03;;;;;;;1.38;1.27;;;20.90;55.20;;;;;;5093626;28;20187;-70
2022/06/02 08:16:50;;;;;;;1.42;1.33;;;20.80;55.00;;;;;;5092245;28;20737;-70
2022/06/02 08:19:23;;;;;;;1.77;1.35;;;20.90;55.80;;;;;;5088637;28;20219;-70
2022/06/02 08:21:55;;;;;;;1.40;1.17;;;20.90;55.20;;;;;;5091791;28;20185;-70
2022/06/02 08:24:34;;;;;;;1.30;1.20;;;20.90;55.20;;;;;;5093299;28;20192;-70
2022/06/02 08:27:53;;;;;;;1.42;1.33;;;20.90;55.20;;;;;;5075314;28;20234;-71
2022/06/02 08:31:01;;;;;;;1.30;1.20;;;20.90;55.10;;;;;;5076586;28;20243;-70
2022/06/02 08:33:58;;;;;;;1.60;1.30;;;20.90;55.10;;;;;;5075004;28;20189;-70
2022/06/02 08:36:34;;;;;;;1.17;1.17;;;20.90;55.20;;;;;;5091881;28;20215;-70
2022/06/02 08:39:31;;;;;;;1.20;1.10;;;20.90;55.20;;;;;;5092210;28;20281;-70
2022/06/02 08:42:56;;;;;;;1.42;1.33;;;20.90;55.20;;;;;;5091386;28;20188;-70
2022/06/02 08:45:57;;;;;;;1.90;1.30;;;20.90;55.10;;;;;;5074977;28;20173;-70
2022/06/02 08:49:06;;;;;;;1.38;1.27;;;21.00;55.20;;;;;;5075392;28;20215;-70
2022/06/02 08:52:20;;;;;;;1.33;1.23;;;21.00;55.10;;;;;;5091868;28;20238;-70
2022/06/02 08:55:42;;;;;;;1.33;1.23;;;21.00;55.20;;;;;;5075038;28;20184;-70
2022/06/02 08:58:43;;;;;;;1.25;1.20;;;21.00;55.20;;;;;;5074972;28;20208;-70
2022/06/02 09:01:34;;;;;;;1.38;1.27;;;21.00;54.90;;;;;;5092443;28;20210;-70
2022/06/02 09:04:36;;;;;;;1.50;1.05;;;21.00;55.20;;;;;;5093230;28;20212;-70
2022/06/02 09:07:48;;;;;;;1.48;1.30;;;21.00;55.20;;;;;;5092593;28;20604;-71
2022/06/02 09:11:07;;;;;;;1.20;1.10;;;21.00;55.20;;;;;;5093362;28;20199;-70
2022/06/02 09:14:19;;;;;;;2.08;1.40;;;21.00;55.20;;;;;;5092603;28;20176;-70
2022/06/02 09:17:06;;;;;;;1.30;1.20;;;21.00;55.20;;;;;;5092932;28;20201;-70
2022/06/02 09:19:51;;;;;;;1.30;1.20;;;21.00;55.10;;;;;;5062686;28;20668;-70
2022/06/02 09:22:47;;;;;;;1.08;0.90;;;21.00;55.20;;;;;;5092175;28;20192;-69
2022/06/02 09:25:47;;;;;;;1.67;1.08;;;21.00;55.20;;;;;;5093262;28;20180;-70
2022/06/02 09:28:35;;;;;;;1.77;1.38;;;21.10;55.30;;;;;;5092107;28;20235;-70
2022/06/02 09:31:29;;;;;;;2.22;1.15;;;21.00;55.20;;;;;;5091717;28;20199;-69
2022/06/02 09:34:28;;;;;;;1.10;1.00;;;21.00;55.00;;;;;;5091475;28;20180;-70
2022/06/02 09:37:30;;;;;;;1.20;1.00;;;21.00;55.10;;;;;;5092398;28;20200;-70
2022/06/02 09:40:37;;;;;;;1.25;1.15;;;21.00;55.20;;;;;;5055086;28;20279;-70
2022/06/02 09:43:21;;;;;;;2.25;1.33;;;21.00;55.20;;;;;;5055069;28;20190;-70
2022/06/02 09:46:08;;;;;;;1.15;1.10;;;21.00;55.50;;;;;;5071844;28;20193;-70
2022/06/02 09:49:09;;;;;;;1.30;1.20;;;21.00;55.20;;;;;;5077497;28;20318;-71
2022/06/02 09:51:54;;;;;;;1.95;1.30;;;21.00;55.30;;;;;;5072671;28;20170;-70
2022/06/02 09:54:57;;;;;;;2.97;1.33;;;21.00;55.40;;;;;;5072054;28;20169;-70
2022/06/02 10:00:20;;;;;;;2.35;1.17;;;21.00;55.50;;;;;;5075325;28;20201;-70
2022/06/02 10:03:01;;;;;;;1.75;1.20;;;21.00;55.50;;;;;;5075681;28;20558;-69
2022/06/02 10:05:46;;;;;;;1.25;1.15;;;21.10;55.60;;;;;;5076317;28;20170;-70
2022/06/02 10:08:44;;;;;;;1.20;1.10;;;21.10;55.50;;;;;;5075427;28;20221;-69
2022/06/02 10:11:53;;;;;;;1.40;1.20;;;21.10;55.70;;;;;;5072275;28;20322;-69
2022/06/02 10:15:00;;;;;;;1.40;1.30;;;21.10;55.80;;;;;;5078528;28;20192;-70
2022/06/02 10:18:01;;;;;;;1.65;1.27;;;21.10;55.70;;;;;;5096524;28;20558;-70
2022/06/02 10:21:04;;;;;;;2.25;1.42;;;21.10;55.80;;;;;;5096749;28;20239;-70
2022/06/02 10:23:33;;;;;;;1.63;1.35;;;21.10;55.80;;;;;;5094816;28;20237;-69
2022/06/02 10:26:24;;;;;;;1.75;1.30;;;21.10;55.80;;;;;;5077755;28;20181;-70
2022/06/02 10:29:27;;;;;;;1.70;1.40;;;21.00;55.60;;;;;;5095122;28;20197;-70
2022/06/02 10:32:18;;;;;;;2.40;1.25;;;21.10;55.70;;;;;;5078257;28;20196;-70
2022/06/02 10:35:13;;;;;;;1.83;1.30;;;21.10;55.70;;;;;;5088503;28;20275;-70
2022/06/02 10:38:21;;;;;;;1.50;1.40;;;21.10;55.70;;;;;;5095889;28;20196;-69
2022/06/02 10:41:14;;;;;;;2.03;1.65;;;21.10;55.70;;;;;;5068941;28;20196;-70
2022/06/02 10:44:13;;;;;;;3.13;1.23;;;21.10;55.60;;;;;;5091555;28;20272;-70
2022/06/02 10:47:19;;;;;;;2.58;1.40;;;21.10;56.00;;;;;;5090828;28;20307;-69
2022/06/02 10:50:48;;;;;;;1.80;1.45;;;21.10;55.80;;;;;;5076113;28;20221;-70
2022/06/02 10:53:44;;;;;;;2.10;1.55;;;21.10;56.00;;;;;;5059051;28;20196;-69
2022/06/02 10:56:20;;;;;;;4.03;1.63;;;21.10;56.00;;;;;;5070018;28;20185;-69
2022/06/02 10:59:05;;;;;;;1.40;1.30;;;21.10;55.70;;;;;;5101802;28;20177;-70
2022/06/02 11:02:02;;;;;;;1.48;1.38;;;21.10;55.80;;;;;;5078084;28;20220;-69
2022/06/02 11:05:04;;;;;;;2.08;1.40;;;21.10;55.80;;;;;;5064446;28;20212;-69
2022/06/02 11:07:57;;;;;;;2.58;1.50;;;21.10;55.90;;;;;;5099418;28;20217;-69
2022/06/02 11:10:40;;;;;;;4.75;1.65;;;21.10;55.80;;;;;;5096205;28;20193;-69
2022/06/02 11:13:49;;;;;;;1.88;1.65;;;21.10;55.90;;;;;;5074402;28;20220;-70
2022/06/02 11:16:54;;;;;;;1.67;1.58;;;21.10;55.90;;;;;;5074538;28;20287;-70
2022/06/02 11:20:30;;;;;;;2.42;1.60;;;21.10;55.90;;;;;;5074044;28;20181;-69
2022/06/02 11:23:47;;;;;;;1.60;1.23;;;21.10;55.80;;;;;;5081425;28;20272;-69
2022/06/02 11:26:43;;;;;;;2.25;1.27;;;21.10;55.90;;;;;;5072147;28;20208;-70
2022/06/02 11:29:45;;;;;;;3.22;1.30;;;21.20;56.00;;;;;;5074134;28;20697;-70
2022/06/02 11:33:14;;;;;;;2.38;1.60;;;21.20;56.00;;;;;;5075392;28;20707;-70
2022/06/02 11:36:13;;;;;;;1.83;1.48;;;21.10;56.00;;;;;;5004098;28;20201;-70
2022/06/02 11:39:08;;;;;;;1.42;1.30;;;21.20;56.10;;;;;;5073316;28;20272;-70
2022/06/02 11:42:31;;;;;;;1.63;1.17;;;21.20;56.10;;;;;;5073186;28;20189;-70
2022/06/02 11:45:36;;;;;;;2.08;1.50;;;21.20;56.00;;;;;;5074288;28;20169;-69
2022/06/02 11:48:20;;;;;;;3.35;1.65;;;21.20;56.00;;;;;;5074517;28;20695;-70
2022/06/02 11:51:29;;;;;;;1.65;1.55;;;21.10;55.90;;;;;;5074393;28;20192;-70
2022/06/02 11:54:30;;;;;;;1.50;1.40;;;21.20;55.90;;;;;;5056654;28;20224;-70
2022/06/02 11:57:56;;;;;;;2.05;1.50;;;21.20;56.00;;;;;;5072631;28;20208;-70
2022/06/02 12:00:46;;;;;;;1.65;1.40;;;21.20;56.00;;;;;;5028869;28;20205;-70
2022/06/02 12:04:07;;;;;;;3.60;1.60;;;21.20;56.00;;;;;;5072416;28;20579;-70
2022/06/02 12:07:05;;;;;;;3.17;1.50;;;21.10;55.90;;;;;;5049641;28;20281;-70
2022/06/02 12:10:18;;;;;;;4.15;1.77;;;21.30;55.90;;;;;;5072488;28;20217;-70
2022/06/02 12:13:15;;;;;;;1.60;1.40;;;21.30;55.90;;;;;;5052125;28;20201;-70
2022/06/02 12:16:24;;;;;;;2.15;1.40;;;21.30;56.00;;;;;;5072178;28;20174;-70
2022/06/02 12:19:33;;;;;;;3.95;1.50;;;21.20;55.90;;;;;;5055708;28;20185;-70
2022/06/02 12:22:54;;;;;;;2.70;1.40;;;21.20;56.00;;;;;;5055720;28;20177;-69
2022/06/02 12:25:56;;;;;;;2.78;1.50;;;21.30;56.20;;;;;;5082452;28;20254;-69
2022/06/02 12:28:53;;;;;;;1.70;1.40;;;21.30;56.00;;;;;;5093522;28;20706;-69
2022/06/02 12:31:39;;;;;;;1.77;1.40;;;21.30;56.10;;;;;;5075444;28;20185;-69
2022/06/02 12:34:08;;;;;;;2.58;1.50;;;21.30;56.10;;;;;;5093399;28;20251;-69
2022/06/02 12:36:56;;;;;;;3.03;1.55;;;21.30;56.10;;;;;;5093288;28;20203;-69
2022/06/02 12:39:39;;;;;;;4.38;1.20;;;21.30;56.00;;;;;;5093569;28;20165;-69
2022/06/02 12:42:38;;;;;;;1.60;1.42;;;21.30;56.10;;;;;;5081711;28;20280;-69
2022/06/02 12:45:42;;;;;;;5.45;1.40;;;21.30;56.00;;;;;;5071930;28;20194;-69
2022/06/02 12:48:48;;;;;;;1.85;1.30;;;21.30;56.10;;;;;;5053426;28;20233;-69
2022/06/02 12:51:51;;;;;;;1.40;1.30;;;21.30;56.10;;;;;;5071969;28;20178;-70
2022/06/02 12:54:57;;;;;;;2.65;1.60;;;21.20;56.00;;;;;;5082825;28;20267;-70
2022/06/02 12:57:59;;;;;;;2.08;1.48;;;21.30;56.20;;;;;;5092006;28;20691;-69
2022/06/02 13:00:41;;;;;;;1.63;1.42;;;21.30;56.10;;;;;;5075518;28;20197;-70
2022/06/02 13:04:05;;;;;;;2.38;1.30;;;21.30;56.10;;;;;;5093271;28;20192;-69
2022/06/02 13:07:12;;;;;;;1.63;1.52;;;21.30;56.10;;;;;;5093113;28;20201;-70
2022/06/02 13:10:27;;;;;;;1.40;1.30;;;21.30;56.20;;;;;;5075109;28;20594;-69
2022/06/02 13:13:30;;;;;;;1.60;1.40;;;21.30;56.10;;;;;;5091824;28;20185;-70
2022/06/02 13:16:06;;;;;;;1.52;1.27;;;21.30;56.00;;;;;;5094516;28;20191;-70
2022/06/02 13:19:01;;;;;;;1.50;1.20;;;21.30;56.10;;;;;;5112496;28;20168;-70
2022/06/02 13:22:17;;;;;;;1.35;1.25;;;21.30;56.00;;;;;;5111952;28;20204;-70
2022/06/02 13:24:57;;;;;;;1.60;1.50;;;21.30;56.00;;;;;;5111977;28;20255;-69
2022/06/02 13:27:57;;;;;;;1.38;1.20;;;21.30;56.00;;;;;;5104073;28;20589;-70
2022/06/02 13:31:15;;;;;;;2.95;1.63;;;21.30;55.90;;;;;;5112656;28;20176;-70
2022/06/02 13:34:42;;;;;;;2.60;1.80;;;21.30;55.90;;;;;;5082745;28;20201;-69
2022/06/02 13:37:56;;;;;;;2.65;1.33;;;21.30;56.00;;;;;;5054455;28;20221;-70
2022/06/02 13:41:10;;;;;;;2.10;1.40;;;21.30;56.00;;;;;;5073117;28;20199;-70
2022/06/02 13:44:05;;;;;;;1.63;1.52;;;21.30;55.90;;;;;;5036013;28;20710;-70
2022/06/02 13:47:23;;;;;;;1.60;1.50;;;21.30;56.00;;;;;;5108266;28;20240;-70
2022/06/02 13:50:13;;;;;;;2.20;1.35;;;21.30;56.00;;;;;;5071503;28;20205;-69
2022/06/02 13:53:35;;;;;;;1.73;1.60;;;21.30;55.90;;;;;;5076491;28;20200;-69
2022/06/02 13:59:12;;;;;;;1.50;1.40;;;21.30;55.90;;;;;;4990658;28;20228;-69
2022/06/02 14:01:50;;;;;;;1.77;1.58;;;21.30;55.90;;;;;;5060727;28;20205;-70
2022/06/02 14:04:50;;;;;;;2.28;1.58;;;21.30;55.90;;;;;;5070815;28;20237;-70
2022/06/02 14:07:44;;;;;;;1.40;1.30;;;21.30;56.00;;;;;;5074477;28;20208;-69
2022/06/02 14:10:42;;;;;;;1.75;1.50;;;21.30;56.00;;;;;;5109831;28;20176;-69
2022/06/02 14:13:57;;;;;;;2.03;1.50;;;21.30;56.00;;;;;;5112812;28;20183;-70
2022/06/02 14:16:34;;;;;;;3.20;1.60;;;21.30;56.00;;;;;;5050837;28;20697;-69
2022/06/02 14:19:22;;;;;;;1.50;1.40;;;21.30;56.00;;;;;;5054335;28;20162;-69
2022/06/02 14:22:28;;;;;;;1.67;1.58;;;21.30;56.10;;;;;;5082358;28;20189;-70
2022/06/02 14:25:28;;;;;;;2.45;1.50;;;21.30;56.10;;;;;;5094887;28;20217;-70
2022/06/02 14:28:25;;;;;;;1.70;1.60;;;21.30;56.10;;;;;;5070929;28;20205;-68
2022/06/02 14:31:35;;;;;;;1.73;1.50;;;21.20;56.10;;;;;;5063071;28;20179;-70
2022/06/02 14:34:37;;;;;;;3.28;1.52;;;21.30;56.10;;;;;;5106800;28;20184;-70
2022/06/02 14:37:13;;;;;;;2.15;1.58;;;21.30;56.10;;;;;;5094264;28;20211;-69
2022/06/02 14:40:00;;;;;;;3.15;1.92;;;21.30;56.10;;;;;;5111143;28;20180;-69
2022/06/02 14:43:04;;;;;;;1.92;1.52;;;21.20;56.00;;;;;;5106434;28;20181;-69
2022/06/02 14:46:05;;;;;;;1.50;1.40;;;21.30;56.10;;;;;;5075574;28;20173;-70
2022/06/02 14:48:51;;;;;;;2.03;1.60;;;21.20;56.10;;;;;;5087958;28;20211;-69
2022/06/02 14:51:29;;;;;;;3.20;1.60;;;21.20;56.10;;;;;;5116600;28;20206;-69
2022/06/02 14:54:22;;;;;;;1.50;1.40;;;21.20;56.10;;;;;;5115997;28;20216;-69
2022/06/02 14:57:19;;;;;;;1.60;1.50;;;21.20;56.10;;;;;;5116129;28;20200;-69
2022/06/02 15:00:09;;;;;;;2.50;1.60;;;21.20;56.10;;;;;;5105935;28;20192;-69
2022/06/02 15:02:58;;;;;;;2.38;1.33;;;21.20;56.10;;;;;;5093819;28;20242;-69
2022/06/02 15:05:42;;;;;;;1.70;1.60;;;21.20;56.10;;;;;;5087930;28;20189;-69
2022/06/02 15:08:45;;;;;;;1.60;1.40;;;21.20;56.10;;;;;;5090205;28;20225;-69
2022/06/02 15:11:32;;;;;;;1.73;1.60;;;21.20;56.10;;;;;;5092324;28;20194;-69
2022/06/02 15:14:48;;;;;;;1.70;1.60;;;21.30;56.10;;;;;;5114588;28;20176;-68
2022/06/02 15:17:42;;;;;;;1.73;1.48;;;21.30;56.20;;;;;;5114768;28;20204;-69
2022/06/02 15:20:27;;;;;;;2.30;1.45;;;21.20;56.10;;;;;;5107736;28;20165;-69
2022/06/02 15:23:39;;;;;;;1.60;1.50;;;21.20;56.70;;;;;;5080813;28;20239;-69
2022/06/02 15:26:54;;;;;;;1.90;1.70;;;21.20;56.20;;;;;;5089838;28;20242;-69
2022/06/02 15:29:42;;;;;;;1.45;1.35;;;21.20;56.20;;;;;;5086010;28;20212;-69
2022/06/02 15:32:58;;;;;;;1.88;1.50;;;21.30;56.40;;;;;;5074140;28;20190;-69